Time;durP1;ratioP1;P1;durP2;ratioP2;P2;SDS_P1;SDS_P2;PMS_P1;PMS_P2;Temp;Humidity;BMP_temperature;BMP_pressure;BME280_temperature;BME280_humidity;BME280_pressure;Samples;Min_cycle;Max_cycle;Signal;HPM_P1;HPM_P2
2024/01/02 00:00:31;;;;;;;15.07;3.90;;;;;;;6.58;100.00;100318.59;10342924;28;20049;-58
2024/01/02 00:05:53;;;;;;;19.58;4.07;;;;;;;6.55;100.00;100316.94;10341527;28;20045;-58
2024/01/02 00:11:15;;;;;;;20.40;3.90;;;;;;;6.57;100.00;100302.34;10366514;28;20058;-58
2024/01/02 00:16:36;;;;;;;17.70;3.22;;;;;;;6.59;100.00;100292.84;10340903;28;20045;-58
2024/01/02 00:21:58;;;;;;;21.05;3.80;;;;;;;6.58;100.00;100282.59;10345413;28;20521;-58
2024/01/02 00:27:20;;;;;;;20.77;3.83;;;;;;;6.59;100.00;100268.88;10337763;28;20077;-58
2024/01/02 00:32:41;;;;;;;19.13;3.10;;;;;;;6.58;100.00;100259.47;10346501;28;20049;-58
2024/01/02 00:38:10;;;;;;;16.00;2.83;;;;;;;6.56;100.00;100244.09;10343966;28;20106;-58
2024/01/02 00:43:32;;;;;;;19.45;4.05;;;;;;;6.54;100.00;100238.16;10353705;28;20042;-58
2024/01/02 00:48:54;;;;;;;12.25;2.95;;;;;;;6.62;100.00;100236.25;10346386;28;20042;-60
2024/01/02 00:54:15;;;;;;;19.38;3.03;;;;;;;6.60;100.00;100227.72;10343322;28;20521;-60
2024/01/02 00:59:40;;;;;;;17.55;3.30;;;;;;;6.63;100.00;100224.25;10365282;28;20058;-61
2024/01/02 01:05:02;;;;;;;14.63;2.58;;;;;;;6.64;100.00;100207.94;10344439;28;20070;-60
2024/01/02 01:10:23;;;;;;;18.13;2.80;;;;;;;6.64;100.00;100201.06;10356014;28;20109;-60
2024/01/02 01:15:45;;;;;;;16.52;2.92;;;;;;;6.64;100.00;100175.38;10344690;28;20177;-60
2024/01/02 01:21:07;;;;;;;12.55;3.30;;;;;;;6.64;100.00;100157.38;10336343;28;20053;-60
2024/01/02 01:26:29;;;;;;;15.38;3.00;;;;;;;6.64;100.00;100157.38;10353341;28;20409;-60
2024/01/02 01:31:50;;;;;;;17.65;3.67;;;;;;;6.60;100.00;100140.34;10345212;28;20148;-58
2024/01/02 01:37:12;;;;;;;16.98;4.10;;;;;;;6.61;100.00;100125.78;10335382;28;20042;-61
2024/01/02 01:42:34;;;;;;;14.38;3.85;;;;;;;6.60;100.00;100114.63;10355876;28;20042;-61
2024/01/02 01:47:55;;;;;;;16.05;3.30;;;;;;;6.57;100.00;100104.44;10348480;28;20420;-60
2024/01/02 01:53:18;;;;;;;15.75;3.15;;;;;;;6.60;100.00;100099.22;10353469;28;20069;-60
2024/01/02 01:58:39;;;;;;;17.95;3.58;;;;;;;6.57;100.00;100078.75;10360191;28;20144;-58
2024/01/02 02:04:02;;;;;;;13.45;3.72;;;;;;;6.57;100.00;100068.47;10364689;28;20060;-60
2024/01/02 02:09:24;;;;;;;16.17;3.50;;;;;;;6.62;100.00;100065.75;10351731;28;20437;-62
2024/01/02 02:14:46;;;;;;;11.38;3.30;;;;;;;6.62;100.00;100040.91;10341649;28;20476;-60
2024/01/02 02:20:24;;;;;;;17.73;3.67;;;;;;;6.63;100.00;100034.88;10346466;28;20514;-60
2024/01/02 02:25:45;;;;;;;15.65;3.30;;;;;;;6.66;100.00;100016.81;10342815;28;20427;-60
2024/01/02 02:31:07;;;;;;;16.23;3.28;;;;;;;6.68;100.00;100009.06;10347884;28;20049;-61
2024/01/02 02:36:29;;;;;;;14.20;3.58;;;;;;;6.72;100.00;100000.38;10342337;28;20046;-61
2024/01/02 02:41:50;;;;;;;13.60;3.25;;;;;;;6.74;100.00;99994.31;10351013;28;20141;-60
2024/01/02 02:47:12;;;;;;;16.08;3.28;;;;;;;6.76;100.00;99981.41;10340341;28;20073;-58
2024/01/02 02:52:34;;;;;;;18.88;3.10;;;;;;;6.76;100.00;99955.69;10335711;28;20053;-58
2024/01/02 02:57:55;;;;;;;20.10;3.00;;;;;;;6.78;100.00;99933.34;10344520;28;20895;-60
2024/01/02 03:03:17;;;;;;;18.90;3.03;;;;;;;6.81;100.00;99928.97;10330640;28;20470;-59
2024/01/02 03:08:39;;;;;;;16.80;2.90;;;;;;;6.84;100.00;99916.03;10334020;28;20061;-61
2024/01/02 03:14:00;;;;;;;16.13;2.83;;;;;;;6.84;100.00;99903.19;10338525;28;20062;-58
2024/01/02 03:19:22;;;;;;;14.63;2.90;;;;;;;6.83;100.00;99867.25;10341059;28;20042;-60
2024/01/02 03:24:44;;;;;;;17.23;3.00;;;;;;;6.83;100.00;99860.34;10320661;28;20050;-58
2024/01/02 03:30:06;;;;;;;18.15;2.63;;;;;;;6.86;100.00;99844.00;10338586;28;20140;-59
2024/01/02 03:35:28;;;;;;;17.23;2.65;;;;;;;6.87;100.00;99835.38;10332142;28;20521;-60
2024/01/02 03:40:50;;;;;;;18.23;2.70;;;;;;;6.87;100.00;99825.94;10342113;28;20060;-59
2024/01/02 03:46:12;;;;;;;10.73;2.60;;;;;;;6.90;100.00;99814.75;10337562;28;20109;-59
2024/01/02 03:51:34;;;;;;;10.65;2.22;;;;;;;6.88;100.00;99799.38;10333610;28;20046;-59
2024/01/02 03:56:55;;;;;;;17.52;2.47;;;;;;;6.87;100.00;99779.66;10342557;28;20054;-58
2024/01/02 04:02:17;;;;;;;17.23;2.40;;;;;;;6.89;100.00;99757.31;10350791;28;20050;-59
2024/01/02 04:07:39;;;;;;;14.50;2.60;;;;;;;6.82;100.00;99740.41;10354876;28;20045;-59
2024/01/02 04:13:00;;;;;;;13.27;2.35;;;;;;;6.85;100.00;99727.44;10349222;28;20506;-59
2024/01/02 04:18:22;;;;;;;10.93;2.05;;;;;;;6.85;100.00;99709.47;10351303;28;20062;-59
2024/01/02 04:23:44;;;;;;;16.52;2.30;;;;;;;6.85;100.00;99688.88;10344448;28;20045;-59
2024/01/02 04:29:06;;;;;;;17.88;2.38;;;;;;;6.88;100.00;99672.53;10342609;28;20078;-59
2024/01/02 04:34:28;;;;;;;11.68;1.88;;;;;;;6.89;100.00;99656.19;10342093;28;20046;-59
2024/01/02 04:39:49;;;;;;;11.85;2.03;;;;;;;6.89;100.00;99639.06;10345431;28;20052;-59
2024/01/02 04:45:11;;;;;;;9.45;1.70;;;;;;;6.93;100.00;99626.94;10346376;28;20689;-59
2024/01/02 04:50:33;;;;;;;10.23;1.73;;;;;;;6.97;100.00;99607.94;10342363;28;21418;-59
2024/01/02 04:55:54;;;;;;;12.13;2.00;;;;;;;6.97;100.00;99595.06;10354427;28;20533;-59
2024/01/02 05:01:16;;;;;;;11.02;1.90;;;;;;;6.99;100.00;99578.72;10328445;28;20128;-59
2024/01/02 05:06:38;;;;;;;12.02;2.10;;;;;;;6.98;100.00;99566.72;10339864;28;20052;-61
2024/01/02 05:11:59;;;;;;;10.18;1.70;;;;;;;6.97;100.00;99553.94;10346821;28;20076;-60
2024/01/02 05:17:21;;;;;;;12.25;2.20;;;;;;;6.95;100.00;99541.13;10354412;28;20050;-59
2024/01/02 05:22:43;;;;;;;13.57;1.75;;;;;;;6.93;100.00;99531.78;10337585;28;20104;-59
2024/01/02 05:28:05;;;;;;;8.88;1.52;;;;;;;6.97;100.00;99513.63;10338182;28;20064;-60
2024/01/02 05:33:27;;;;;;;14.80;2.85;;;;;;;6.96;100.00;99508.53;10350208;28;20421;-60
2024/01/02 05:38:48;;;;;;;8.27;2.00;;;;;;;6.97;100.00;99498.22;10347456;28;20573;-60
2024/01/02 05:44:13;;;;;;;6.78;1.85;;;;;;;6.94;100.00;99485.44;10365305;28;20077;-59
2024/01/02 05:49:35;;;;;;;12.27;1.92;;;;;;;6.94;100.00;99472.59;10347315;28;20097;-60
2024/01/02 05:54:57;;;;;;;14.35;1.90;;;;;;;6.94;100.00;99467.44;10357454;28;20054;-60
2024/01/02 06:00:19;;;;;;;12.63;1.90;;;;;;;6.93;100.00;99454.66;10363189;28;20482;-60
2024/01/02 06:05:40;;;;;;;9.90;1.40;;;;;;;6.93;100.00;99437.50;10349070;28;20081;-60
2024/01/02 06:11:02;;;;;;;7.28;1.50;;;;;;;6.93;100.00;99424.66;10347752;28;20494;-59
2024/01/02 06:16:24;;;;;;;9.90;1.88;;;;;;;6.92;100.00;99412.69;10352249;28;20430;-60
2024/01/02 06:21:46;;;;;;;7.45;1.80;;;;;;;6.92;100.00;99394.69;10346485;28;20140;-59
2024/01/02 06:27:08;;;;;;;10.45;1.55;;;;;;;6.91;100.00;99385.31;10328076;28;20043;-59
2024/01/02 06:32:31;;;;;;;6.10;1.42;;;;;;;6.92;100.00;99381.00;10349885;28;20045;-60
2024/01/02 06:37:53;;;;;;;9.40;1.30;;;;;;;6.91;100.00;99369.88;10347736;28;20141;-59
2024/01/02 06:43:14;;;;;;;3.33;1.15;;;;;;;6.89;100.00;99361.38;10352472;28;20049;-59
2024/01/02 06:48:36;;;;;;;3.15;1.05;;;;;;;6.90;100.00;99349.38;10349680;28;20047;-59
2024/01/02 06:53:58;;;;;;;5.40;1.50;;;;;;;6.92;100.00;99345.00;10351104;28;20506;-60
2024/01/02 06:59:19;;;;;;;6.28;1.40;;;;;;;6.89;100.00;99330.53;10334281;28;20050;-60
2024/01/02 07:04:41;;;;;;;5.60;1.48;;;;;;;6.92;100.00;99319.31;10346453;28;20045;-59
2024/01/02 07:10:03;;;;;;;4.07;1.20;;;;;;;6.92;100.00;99317.53;10350097;28;20046;-60
2024/01/02 07:15:25;;;;;;;4.93;1.35;;;;;;;6.90;100.00;99303.91;10351242;28;20138;-60
2024/01/02 07:20:47;;;;;;;2.15;1.02;;;;;;;6.91;100.00;99297.03;10349326;28;20092;-59
2024/01/02 07:26:09;;;;;;;7.22;1.45;;;;;;;6.95;100.00;99293.47;10347376;28;20105;-59
2024/01/02 07:31:32;;;;;;;5.88;1.40;;;;;;;6.94;100.00;99284.91;10345939;28;20050;-59
2024/01/02 07:36:53;;;;;;;4.38;1.38;;;;;;;6.95;100.00;99276.31;10346040;28;20499;-61
2024/01/02 07:42:15;;;;;;;9.73;1.90;;;;;;;6.95;100.00;99258.31;10341789;28;20145;-60
2024/01/02 07:47:38;;;;;;;5.82;1.80;;;;;;;6.95;100.00;99263.47;10355316;28;20580;-60
2024/01/02 07:53:00;;;;;;;3.65;1.42;;;;;;;6.93;100.00;99257.53;10343466;28;20050;-60
2024/01/02 07:58:21;;;;;;;5.22;1.38;;;;;;;6.90;100.00;99255.06;10347318;28;20058;-60
2024/01/02 08:03:44;;;;;;;9.07;1.48;;;;;;;6.98;100.00;99240.19;10340513;28;20052;-61
2024/01/02 08:09:05;;;;;;;1.50;1.00;;;;;;;6.95;100.00;99240.31;10354810;28;20125;-59
2024/01/02 08:14:27;;;;;;;2.45;1.23;;;;;;;6.97;100.00;99235.94;10344831;28;20471;-59
2024/01/02 08:19:51;;;;;;;1.88;1.20;;;;;;;6.98;100.00;99239.34;10360370;28;20046;-59
2024/01/02 08:25:12;;;;;;;4.35;1.30;;;;;;;6.99;100.00;99229.00;10344776;28;20050;-59
2024/01/02 08:30:34;;;;;;;1.35;1.25;;;;;;;7.00;100.00;99220.38;10343383;28;20113;-60
2024/01/02 08:35:57;;;;;;;1.60;1.00;;;;;;;7.03;100.00;99204.00;10341790;28;20045;-59
2024/01/02 08:41:20;;;;;;;6.40;1.30;;;;;;;7.02;100.00;99200.59;10359407;28;20057;-60
2024/01/02 08:46:42;;;;;;;1.85;1.10;;;;;;;7.02;100.00;99182.59;10340836;28;20046;-59
2024/01/02 08:52:05;;;;;;;1.50;1.05;;;;;;;7.04;100.00;99178.22;10357474;28;20101;-60
2024/01/02 08:57:26;;;;;;;1.75;1.25;;;;;;;7.03;100.00;99173.97;10355968;28;20430;-59
2024/01/02 09:02:48;;;;;;;2.00;1.15;;;;;;;7.05;100.00;99172.16;10369055;28;20050;-60
2024/01/02 09:08:10;;;;;;;1.75;1.20;;;;;;;7.06;100.00;99175.56;10359078;28;20112;-60
2024/01/02 09:13:32;;;;;;;4.15;0.95;;;;;;;7.07;100.00;99170.38;10364497;28;20506;-60
2024/01/02 09:18:54;;;;;;;1.00;0.90;;;;;;;7.11;100.00;99166.75;10340358;28;20082;-59
2024/01/02 09:24:18;;;;;;;1.55;1.02;;;;;;;7.13;100.00;99190.69;10349752;28;20058;-59
2024/01/02 09:29:39;;;;;;;1.88;1.00;;;;;;;7.15;100.00;99152.03;10363651;28;20486;-60
2024/01/02 09:35:05;;;;;;;1.23;0.98;;;;;;;7.12;100.00;99207.00;10374840;28;20406;-60
2024/01/02 09:40:58;;;;;;;2.20;0.77;;;;;;;7.13;100.00;99175.25;10370123;28;20081;-60
2024/01/02 09:46:25;;;;;;;3.25;1.00;;;;;;;7.16;100.00;99179.41;10350426;28;20423;-60
2024/01/02 09:51:50;;;;;;;0.98;0.88;;;;;;;7.21;100.00;99151.78;10353796;28;20061;-60
2024/01/02 09:57:35;;;;;;;1.38;1.20;;;;;;;7.27;100.00;99154.06;10352983;28;20052;-60
2024/01/02 10:03:26;;;;;;;2.70;1.67;;;;;;;7.33;100.00;99150.38;10365536;28;20498;-60
2024/01/02 10:08:50;;;;;;;4.85;2.33;;;;;;;7.35;100.00;99148.59;10349020;28;20547;-59
2024/01/02 10:14:31;;;;;;;2.58;1.65;;;;;;;7.38;100.00;99145.91;10352586;28;20046;-59
2024/01/02 10:20:05;;;;;;;2.05;1.85;;;;;;;7.43;100.00;99142.22;10359786;28;20129;-59
2024/01/02 10:25:29;;;;;;;4.45;1.85;;;;;;;7.49;100.00;99130.81;10342790;28;20120;-59
2024/01/02 10:31:04;;;;;;;2.92;2.25;;;;;;;7.51;100.00;99147.03;10349846;28;20145;-61
2024/01/02 10:36:27;;;;;;;3.78;3.00;;;;;;;7.54;100.00;99157.19;10350693;28;20136;-59
2024/01/02 10:42:10;;;;;;;4.28;3.83;;;;;;;7.63;100.00;99128.44;10350957;28;20136;-60
2024/01/02 10:47:51;;;;;;;5.32;4.57;;;;;;;7.71;100.00;99144.38;10347574;28;20049;-60
2024/01/02 10:53:41;;;;;;;8.20;6.18;;;;;;;7.80;100.00;99141.41;10344336;28;20054;-60
2024/01/02 10:59:30;;;;;;;7.47;6.35;;;;;;;7.86;100.00;99131.63;10366511;28;20440;-59
2024/01/02 11:05:08;;;;;;;8.32;6.93;;;;;;;7.93;100.00;99134.75;10369397;28;20141;-60
2024/01/02 11:10:38;;;;;;;10.30;7.40;;;;;;;7.99;100.00;99126.75;10348552;28;20061;-60
2024/01/02 11:16:03;;;;;;;6.90;6.10;;;;;;;8.07;100.00;99133.22;10352097;28;20053;-60
2024/01/02 11:21:41;;;;;;;7.78;6.53;;;;;;;8.14;100.00;99115.72;10351389;28;20056;-60
2024/01/02 11:27:05;;;;;;;10.35;5.85;;;;;;;8.20;100.00;99114.59;10350779;28;20050;-60
2024/01/02 11:32:54;;;;;;;8.50;6.15;;;;;;;8.31;100.00;99109.78;10345651;28;20049;-59
2024/01/02 11:38:26;;;;;;;8.63;5.50;;;;;;;8.39;100.00;99103.34;10342101;28;20495;-59
2024/01/02 11:43:57;;;;;;;13.88;6.38;;;;;;;8.49;100.00;99102.00;10354015;28;20112;-60
2024/01/02 11:49:22;;;;;;;9.93;6.38;;;;;;;8.61;100.00;99085.91;10353767;28;20104;-60
2024/01/02 11:54:55;;;;;;;14.38;7.25;;;;;;;8.69;100.00;99083.78;10351161;28;20076;-59
2024/01/02 12:00:37;;;;;;;12.98;7.97;;;;;;;8.81;100.00;99074.56;10346438;28;20046;-60
2024/01/02 12:06:05;;;;;;;14.80;6.60;;;;;;;8.90;100.00;99072.38;10350644;28;20046;-59
2024/01/02 12:11:29;;;;;;;18.45;8.57;;;;;;;8.98;100.00;99064.22;10345986;28;20057;-59
2024/01/02 12:16:53;;;;;;;12.15;7.20;;;;;;;9.07;100.00;99068.91;10347521;28;20065;-60
2024/01/02 12:22:15;;;;;;;17.48;7.45;;;;;;;9.15;100.00;99059.03;10345365;28;20503;-60
2024/01/02 12:27:37;;;;;;;15.52;7.68;;;;;;;9.21;100.00;99050.13;10343586;28;20038;-60
2024/01/02 12:33:04;;;;;;;13.32;7.13;;;;;;;9.32;100.00;99037.50;10353820;28;20046;-60
2024/01/02 12:38:55;;;;;;;15.43;7.13;;;;;;;9.37;100.00;99027.75;10355703;28;20048;-60
2024/01/02 12:44:19;;;;;;;16.02;7.95;;;;;;;9.45;100.00;99028.19;10356295;28;20424;-60
2024/01/02 12:49:46;;;;;;;20.15;8.68;;;;;;;9.51;100.00;99033.00;10346021;28;20120;-60
2024/01/02 12:55:11;;;;;;;19.67;8.90;;;;;;;9.56;100.00;99026.66;10364773;28;20054;-61
2024/01/02 13:00:34;;;;;;;21.50;8.07;;;;;;;9.60;100.00;99011.81;10349524;28;20494;-61
2024/01/02 13:06:00;;;;;;;18.38;7.43;;;;;;;9.64;100.00;99013.31;10347413;28;20048;-60
2024/01/02 13:11:22;;;;;;;17.30;8.02;;;;;;;9.68;100.00;99001.91;10345706;28;20049;-61
2024/01/02 13:16:44;;;;;;;19.80;7.57;;;;;;;9.73;100.00;99010.22;10353399;28;20052;-60
2024/01/02 13:22:07;;;;;;;32.95;8.40;;;;;;;9.75;100.00;98995.47;10351138;28;20578;-60
2024/01/02 13:27:29;;;;;;;16.42;7.32;;;;;;;9.76;100.00;98990.22;10352424;28;20434;-60
2024/01/02 13:32:52;;;;;;;20.88;7.78;;;;;;;9.79;100.00;98984.06;10346920;28;20078;-61
2024/01/02 13:38:15;;;;;;;18.05;8.40;;;;;;;9.77;100.00;98968.66;10341172;28;20042;-59
2024/01/02 13:43:37;;;;;;;32.85;9.48;;;;;;;9.75;100.00;98956.75;10347311;28;20721;-60
2024/01/02 13:48:59;;;;;;;18.90;9.07;;;;;;;9.81;100.00;98946.06;10337618;28;20143;-59
2024/01/02 13:54:21;;;;;;;24.80;9.05;;;;;;;9.84;100.00;98922.63;10350084;28;20569;-61
2024/01/02 13:59:43;;;;;;;24.88;8.70;;;;;;;9.86;100.00;98920.81;10346490;28;20434;-60
2024/01/02 14:05:07;;;;;;;40.67;9.57;;;;;;;9.89;100.00;98918.03;10369759;28;20056;-59
2024/01/02 14:10:38;;;;;;;44.30;9.88;;;;;;;9.94;100.00;98910.88;10352227;28;20054;-59
2024/01/02 14:16:05;;;;;;;37.58;9.40;;;;;;;9.95;100.00;98894.44;10353649;28;20518;-59
2024/01/02 14:21:28;;;;;;;41.75;9.20;;;;;;;9.98;100.00;98905.41;10358248;28;20521;-60
2024/01/02 14:27:13;;;;;;;41.55;10.30;;;;;;;10.01;100.00;98892.34;10350724;28;20046;-60
2024/01/02 14:33:12;;;;;;;32.20;8.97;;;;;;;10.05;100.00;98880.88;10345309;28;20046;-59
2024/01/02 14:38:40;;;;;;;41.10;9.50;;;;;;;10.06;100.00;98876.53;10347307;28;20049;-61
2024/01/02 14:44:08;;;;;;;26.90;9.27;;;;;;;10.06;100.00;98866.22;10355742;28;20057;-59
2024/01/02 14:49:33;;;;;;;31.95;9.65;;;;;;;10.04;100.00;98862.88;10348860;28;20048;-60
2024/01/02 14:54:55;;;;;;;38.20;9.10;;;;;;;10.04;100.00;98855.97;10364337;28;20400;-59
2024/01/02 15:00:24;;;;;;;34.10;9.65;;;;;;;10.04;100.00;98847.38;10355368;28;20182;-60
2024/01/02 15:05:55;;;;;;;42.85;11.13;;;;;;;10.05;100.00;98849.88;10348824;28;20074;-60
2024/01/02 15:11:32;;;;;;;52.00;13.23;;;;;;;10.07;100.00;98842.06;10355724;28;20041;-59
2024/01/02 15:17:25;;;;;;;47.55;14.73;;;;;;;10.10;100.00;98840.16;10361393;28;20129;-60
2024/01/02 15:23:04;;;;;;;45.58;14.45;;;;;;;10.15;100.00;98829.50;10342824;28;20060;-60
2024/01/02 15:28:31;;;;;;;34.83;11.90;;;;;;;10.19;100.00;98830.16;10342610;28;20070;-59
2024/01/02 15:34:02;;;;;;;36.63;11.30;;;;;;;10.24;100.00;98825.56;10340164;28;20067;-60
2024/01/02 15:39:29;;;;;;;35.20;11.55;;;;;;;10.23;100.00;98818.72;10354818;28;20199;-60
2024/01/02 15:45:05;;;;;;;37.08;11.65;;;;;;;10.26;100.00;98810.75;10347100;28;20141;-60
2024/01/02 15:50:39;;;;;;;34.60;11.32;;;;;;;10.28;100.00;98802.00;10343610;28;20042;-61
2024/01/02 15:56:04;;;;;;;28.93;10.00;;;;;;;10.32;100.00;98784.53;10352991;28;20050;-60
2024/01/02 16:01:30;;;;;;;17.63;7.23;;;;;;;10.37;100.00;98757.47;10344362;28;20060;-59
2024/01/02 16:07:19;;;;;;;20.73;6.85;;;;;;;10.39;100.00;98754.78;10341840;28;20064;-60
2024/01/02 16:13:04;;;;;;;14.57;6.45;;;;;;;10.42;100.00;98734.75;10344971;28;20088;-61
2024/01/02 16:18:30;;;;;;;18.60;6.82;;;;;;;10.45;100.00;98723.41;10348774;28;20129;-60
2024/01/02 16:24:19;;;;;;;12.67;6.60;;;;;;;10.46;100.00;98715.53;10335028;28;20096;-60
2024/01/02 16:29:51;;;;;;;14.35;6.75;;;;;;;10.47;100.00;98700.84;10343367;28;20467;-60
2024/01/02 16:35:16;;;;;;;13.10;6.53;;;;;;;10.51;100.00;98697.16;10340352;28;20042;-60
2024/01/02 16:40:47;;;;;;;11.85;6.85;;;;;;;10.51;100.00;98682.44;10347047;28;20042;-60
2024/01/02 16:46:09;;;;;;;12.98;6.90;;;;;;;10.51;100.00;98660.97;10342672;28;20085;-60
2024/01/02 16:51:31;;;;;;;15.23;7.20;;;;;;;10.49;100.00;98648.13;10358289;28;20074;-60
2024/01/02 16:56:56;;;;;;;12.32;7.53;;;;;;;10.49;100.00;98637.78;10344519;28;20141;-60
2024/01/02 17:02:20;;;;;;;13.38;7.53;;;;;;;10.46;100.00;98614.69;10347973;28;20446;-60
2024/01/02 17:07:42;;;;;;;14.93;8.95;;;;;;;10.45;100.00;98605.31;10343420;28;20526;-60
2024/01/02 17:13:05;;;;;;;14.52;9.82;;;;;;;10.46;100.00;98581.09;10344460;28;20056;-60
2024/01/02 17:18:27;;;;;;;13.15;9.57;;;;;;;10.45;100.00;98563.94;10346652;28;20050;-60
2024/01/02 17:23:50;;;;;;;12.45;9.68;;;;;;;10.42;100.00;98556.38;10358845;28;20054;-60
2024/01/02 17:29:13;;;;;;;22.88;10.52;;;;;;;10.42;100.00;98522.75;10367792;28;20050;-60
2024/01/02 17:34:35;;;;;;;17.85;10.77;;;;;;;10.41;100.00;98515.09;10355777;28;20053;-60
2024/01/02 17:39:58;;;;;;;17.80;10.93;;;;;;;10.36;100.00;98502.50;10357760;28;20112;-60
2024/01/02 17:45:29;;;;;;;10.98;7.78;;;;;;;10.35;100.00;98474.97;10341285;28;20273;-60
2024/01/02 17:50:57;;;;;;;13.55;5.82;;;;;;;10.31;100.00;98465.78;10363974;28;20128;-60
2024/01/02 17:56:19;;;;;;;8.75;5.88;;;;;;;10.29;100.00;98459.91;10351893;28;20388;-60
2024/01/02 18:02:01;;;;;;;7.97;5.35;;;;;;;10.26;100.00;98442.00;10358361;28;20037;-60
2024/01/02 18:07:37;;;;;;;7.20;5.25;;;;;;;10.26;100.00;98433.41;10338893;28;20845;-60
2024/01/02 18:13:11;;;;;;;5.47;3.92;;;;;;;10.23;100.00;98421.53;10363091;28;20565;-60
2024/01/02 18:19:00;;;;;;;5.28;3.30;;;;;;;10.23;100.00;98410.38;10350148;28;20046;-60
2024/01/02 18:24:38;;;;;;;4.18;3.03;;;;;;;10.20;100.00;98385.53;10323768;28;20492;-60
2024/01/02 18:30:29;;;;;;;4.47;2.97;;;;;;;10.20;100.00;98372.63;10337947;28;20053;-60
2024/01/02 18:36:04;;;;;;;6.63;3.30;;;;;;;10.20;100.00;98362.28;10357144;28;20522;-60
2024/01/02 18:41:43;;;;;;;4.38;3.08;;;;;;;10.19;100.00;98350.31;10363690;28;20041;-60
2024/01/02 18:47:10;;;;;;;4.57;3.33;;;;;;;10.17;100.00;98330.66;10349460;28;20060;-60
2024/01/02 18:53:39;;;;;;;4.05;2.50;;;;;;;10.17;100.00;98313.41;10361329;28;20057;-60
2024/01/02 18:59:03;;;;;;;4.68;2.97;;;;;;;10.20;100.00;98314.97;10304000;28;20442;-60
2024/01/02 19:04:25;;;;;;;4.43;3.38;;;;;;;10.18;100.00;98297.00;10347222;28;20057;-60
2024/01/02 19:09:51;;;;;;;5.43;3.75;;;;;;;10.18;100.00;98285.81;10346679;28;20141;-60
2024/01/02 19:15:16;;;;;;;5.47;4.00;;;;;;;10.20;100.00;98274.44;10347928;28;20154;-60
2024/01/02 19:20:43;;;;;;;5.10;3.75;;;;;;;10.18;100.00;98244.47;10339566;28;20451;-61
2024/01/02 19:26:04;;;;;;;5.10;4.10;;;;;;;10.20;100.00;98235.66;10343110;28;20061;-60
2024/01/02 19:31:26;;;;;;;5.63;4.00;;;;;;;10.22;100.00;98226.03;10354572;28;20479;-60
2024/01/02 19:36:49;;;;;;;7.20;3.75;;;;;;;10.20;100.00;98209.81;10343945;28;20054;-60
2024/01/02 19:42:11;;;;;;;4.40;3.75;;;;;;;10.19;100.00;98208.19;10346400;28;20081;-60
2024/01/02 19:47:32;;;;;;;5.47;3.67;;;;;;;10.20;100.00;98201.28;10344283;28;20041;-60
2024/01/02 19:52:54;;;;;;;3.20;2.90;;;;;;;10.20;100.00;98196.91;10349749;28;20399;-61
2024/01/02 19:58:16;;;;;;;5.57;2.70;;;;;;;10.23;100.00;98183.78;10342450;28;20050;-61
2024/01/02 20:03:49;;;;;;;4.88;3.00;;;;;;;10.29;100.00;98170.44;10358432;28;20049;-60
2024/01/02 20:09:35;;;;;;;2.72;2.53;;;;;;;10.34;100.00;98165.75;10345103;28;20061;-61
2024/01/02 20:14:59;;;;;;;;;;;;;;;10.39;100.00;98155.91;10358461;28;20444;-61
2024/01/02 20:20:39;;;;;;;2.95;2.63;;;;;;;10.42;100.00;98155.66;10348835;28;19961;-60
2024/01/02 20:26:05;;;;;;;3.58;2.25;;;;;;;10.51;100.00;98147.25;10359590;28;20049;-61
2024/01/02 20:31:42;;;;;;;3.58;2.80;;;;;;;10.55;100.00;98130.56;10344190;28;20478;-61
2024/01/02 20:37:27;;;;;;;3.05;2.42;;;;;;;10.60;100.00;98143.97;10357414;28;20132;-61
2024/01/02 20:42:50;;;;;;;2.83;2.53;;;;;;;10.65;100.00;98136.72;10358967;28;20109;-61
2024/01/02 20:48:13;;;;;;;5.82;2.70;;;;;;;10.65;100.00;98131.56;10350558;28;20888;-61
2024/01/02 20:53:45;;;;;;;5.47;2.40;;;;;;;10.69;100.00;98127.81;10352240;28;20140;-61
2024/01/02 20:59:11;;;;;;;8.15;2.70;;;;;;;10.76;100.00;98134.19;10358019;28;20041;-60
2024/01/02 21:04:39;;;;;;;2.63;2.38;;;;;;;10.76;100.00;98143.69;10364783;28;20045;-60
2024/01/02 21:10:05;;;;;;;2.35;2.15;;;;;;;10.80;100.00;98140.78;10337981;28;20042;-61
2024/01/02 21:15:43;;;;;;;4.18;2.33;;;;;;;10.86;100.00;98148.06;10350766;28;20144;-60
2024/01/02 21:21:41;;;;;;;2.60;1.70;;;;;;;10.92;100.00;98145.03;10376273;28;20058;-61
2024/01/02 21:27:04;;;;;;;3.92;1.50;;;;;;;10.98;100.00;98154.09;10339391;28;20504;-62
2024/01/02 21:32:26;;;;;;;1.27;1.13;;;;;;;10.97;100.00;98142.91;10359650;28;20571;-62
2024/01/02 21:37:48;;;;;;;2.60;1.45;;;;;;;10.98;100.00;98123.88;10350047;28;20254;-61
2024/01/02 21:43:28;;;;;;;4.07;1.30;;;;;;;11.02;100.00;98127.06;10347244;28;20141;-61
2024/01/02 21:48:52;;;;;;;7.18;1.42;;;;;;;11.05;100.00;98119.88;10356664;28;20414;-61
2024/01/02 21:54:34;;;;;;;9.88;1.30;;;;;;;11.02;100.00;98109.75;10364935;28;20498;-61
2024/01/02 21:59:56;;;;;;;9.95;1.35;;;;;;;11.04;100.00;98112.25;10353857;28;20132;-62
2024/01/02 22:05:17;;;;;;;7.85;1.20;;;;;;;11.05;100.00;98106.13;10354104;28;20050;-61
2024/01/02 22:10:41;;;;;;;5.53;1.00;;;;;;;11.20;100.00;98120.50;10340422;28;20046;-61
2024/01/02 22:16:06;;;;;;;9.43;1.20;;;;;;;11.23;100.00;98114.25;10338455;28;20060;-61
2024/01/02 22:21:34;;;;;;;10.80;1.33;;;;;;;11.27;100.00;98134.59;10339038;28;20085;-61
2024/01/02 22:26:55;;;;;;;5.93;0.98;;;;;;;11.23;100.00;98137.53;10343104;28;20082;-61
2024/01/02 22:32:17;;;;;;;5.72;1.23;;;;;;;11.13;100.00;98130.47;10355531;28;20117;-61
2024/01/02 22:37:39;;;;;;;9.77;1.38;;;;;;;10.98;100.00;98129.06;10360097;28;20041;-61
2024/01/02 22:43:01;;;;;;;9.25;1.25;;;;;;;11.08;100.00;98126.56;10354495;28;20509;-60
2024/01/02 22:48:22;;;;;;;4.57;1.30;;;;;;;10.94;100.00;98137.97;10362987;28;20097;-62
2024/01/02 22:53:44;;;;;;;5.22;0.85;;;;;;;11.03;100.00;98137.28;10350064;28;20401;-61
2024/01/02 22:59:06;;;;;;;5.65;1.08;;;;;;;10.97;100.00;98121.38;10357302;28;20136;-61
2024/01/02 23:04:29;;;;;;;8.93;1.27;;;;;;;10.93;100.00;98120.00;10359156;28;20062;-61
2024/01/02 23:09:54;;;;;;;8.07;1.10;;;;;;;10.87;100.00;98118.69;10347982;28;20045;-61
2024/01/02 23:15:15;;;;;;;5.63;1.25;;;;;;;10.81;100.00;98103.63;10355287;28;20050;-61
2024/01/02 23:20:46;;;;;;;8.50;1.42;;;;;;;10.78;100.00;98096.09;10332878;28;20056;-61
2024/01/02 23:26:08;;;;;;;6.00;1.17;;;;;;;10.80;100.00;98072.69;10346910;28;20077;-61
2024/01/02 23:31:33;;;;;;;8.93;1.20;;;;;;;10.85;100.00;98074.00;10356049;28;20045;-60
2024/01/02 23:36:55;;;;;;;5.85;0.90;;;;;;;10.83;100.00;98068.13;10353344;28;20053;-61
2024/01/02 23:42:25;;;;;;;9.23;1.30;;;;;;;10.83;100.00;98073.28;10356829;28;20088;-61
2024/01/02 23:47:50;;;;;;;4.72;1.10;;;;;;;10.88;100.00;98081.53;10358029;28;20060;-61
2024/01/02 23:53:12;;;;;;;4.50;1.03;;;;;;;10.73;100.00;98072.31;10360605;28;20081;-60
2024/01/02 23:58:34;;;;;;;4.63;1.08;;;;;;;10.64;100.00;98083.34;10361639;28;20058;-60
